createdAt,value
2023-05-15T01:07:59.636Z,99840.50
2023-05-15T01:10:31.004Z,99845.06
2023-05-15T01:13:01.812Z,99841.44
2023-05-15T01:15:32.392Z,99835.44
2023-05-15T01:18:03.016Z,99833.84
2023-05-15T01:20:46.934Z,99840.53
2023-05-15T01:23:49.208Z,99839.22
2023-05-15T01:26:57.832Z,99831.84
2023-05-15T01:29:31.200Z,99827.34
2023-05-15T01:32:08.769Z,99822.44
2023-05-15T01:35:02.351Z,99833.03
2023-05-15T01:37:36.154Z,99838.22
2023-05-15T01:40:09.667Z,99841.91
2023-05-15T01:42:44.699Z,99834.06
2023-05-15T01:45:34.377Z,99836.41
2023-05-15T01:48:09.198Z,99827.69
2023-05-15T01:50:43.026Z,99827.59
2023-05-15T01:53:14.661Z,99817.28
2023-05-15T01:55:45.761Z,99817.28
2023-05-15T01:58:17.572Z,99825.31
2023-05-15T02:00:49.973Z,99824.00
2023-05-15T02:03:21.795Z,99820.22
2023-05-15T02:05:54.800Z,99819.13
2023-05-15T02:08:27.252Z,99827.59
2023-05-15T02:10:58.072Z,99821.84
2023-05-15T02:13:29.603Z,99809.53
2023-05-15T02:16:00.271Z,99804.19
2023-05-15T02:18:30.821Z,99804.25
2023-05-15T02:21:02.677Z,99798.03
2023-05-15T02:23:33.114Z,99795.75
2023-05-15T02:26:03.531Z,99805.91
2023-05-15T02:28:41.016Z,99797.97
2023-05-15T02:31:23.757Z,99794.25
2023-05-15T02:34:28.671Z,99784.19
2023-05-15T02:37:02.709Z,99793.09
2023-05-15T02:39:35.535Z,99788.50
2023-05-15T02:42:07.647Z,99783.31
2023-05-15T02:44:39.567Z,99773.59
2023-05-15T02:47:10.447Z,99769.31
2023-05-15T02:49:42.632Z,99767.06
2023-05-15T02:52:12.943Z,99755.78
2023-05-15T02:54:43.571Z,99757.84
2023-05-15T02:57:13.969Z,99761.84
2023-05-15T02:59:44.736Z,99751.34
2023-05-15T03:02:15.180Z,99743.00
2023-05-15T03:04:45.875Z,99742.50
2023-05-15T03:07:16.912Z,99744.19
2023-05-15T03:09:47.380Z,99729.75
2023-05-15T03:12:18.682Z,99737.50
2023-05-15T03:14:49.080Z,99729.19
2023-05-15T03:17:19.706Z,99730.66
2023-05-15T03:19:50.498Z,99727.28
2023-05-15T03:22:21.071Z,99721.50
2023-05-15T03:24:51.529Z,99717.19
2023-05-15T03:27:22.532Z,99721.66
2023-05-15T03:29:52.929Z,99717.94
2023-05-15T03:32:23.636Z,99710.97
2023-05-15T03:34:54.050Z,99708.53
2023-05-15T03:37:24.474Z,99713.00
2023-05-15T03:39:54.874Z,99709.97
2023-05-15T03:42:26.429Z,99711.84
2023-05-15T03:44:57.857Z,99702.19
2023-05-15T03:47:28.326Z,99704.97
2023-05-15T03:49:58.919Z,99691.22
2023-05-15T03:52:29.511Z,99688.13
2023-05-15T03:54:59.933Z,99682.59
2023-05-15T03:57:30.534Z,99685.75
2023-05-15T04:00:01.448Z,99698.19
2023-05-15T04:02:42.749Z,99682.53
2023-05-15T04:05:13.274Z,99688.00
2023-05-15T04:07:43.708Z,99681.78
2023-05-15T04:10:14.156Z,99688.28
2023-05-15T04:12:44.546Z,99682.88
2023-05-15T04:15:20.319Z,99679.50
2023-05-15T04:17:53.283Z,99675.38
2023-05-15T04:20:25.949Z,99677.53
2023-05-15T04:22:56.412Z,99678.53
2023-05-15T04:25:27.841Z,99680.75
2023-05-15T04:27:58.425Z,99676.59
2023-05-15T04:30:29.064Z,99662.34
2023-05-15T04:32:59.685Z,99665.59
2023-05-15T04:35:30.599Z,99665.59
2023-05-15T04:38:01.040Z,99656.19
2023-05-15T04:40:31.721Z,99657.75
2023-05-15T04:43:02.243Z,99653.59
2023-05-15T04:45:32.647Z,99651.94
2023-05-15T04:48:03.116Z,99654.28
2023-05-15T04:50:33.530Z,99642.88
2023-05-15T04:53:04.030Z,99642.44
2023-05-15T04:55:34.511Z,99638.22
2023-05-15T04:58:05.033Z,99631.63
2023-05-15T05:00:35.465Z,99630.78
2023-05-15T05:03:06.387Z,99626.84
2023-05-15T05:05:36.799Z,99633.34
2023-05-15T05:08:07.261Z,99630.38
2023-05-15T05:10:37.652Z,99620.31
2023-05-15T05:13:08.390Z,99613.59
2023-05-15T05:15:39.320Z,99596.88
2023-05-15T05:18:09.767Z,99598.78
2023-05-15T05:20:40.143Z,99598.00
2023-05-15T05:23:10.575Z,99594.97
2023-05-15T05:25:40.968Z,99605.56
2023-05-15T05:28:11.318Z,99601.84
2023-05-15T05:30:42.087Z,99607.16
2023-05-15T05:33:12.601Z,99602.03
2023-05-15T05:35:43.151Z,99603.28
2023-05-15T05:38:13.755Z,99599.53
2023-05-15T05:40:44.725Z,99595.44
2023-05-15T05:43:15.187Z,99603.97
2023-05-15T05:45:45.684Z,99603.13
2023-05-15T05:48:16.093Z,99604.75
2023-05-15T05:50:46.460Z,99597.94
2023-05-15T05:53:16.935Z,99600.75
2023-05-15T05:55:47.599Z,99611.84
2023-05-15T06:00:55.483Z,99623.09
2023-05-15T06:03:27.504Z,99611.16
2023-05-15T06:05:58.721Z,99609.91
2023-05-15T06:08:30.875Z,99603.06
2023-05-15T06:11:01.398Z,99601.88
2023-05-15T06:13:32.148Z,99608.03
2023-05-15T06:16:03.002Z,99587.44
2023-05-15T06:18:33.378Z,99593.00
2023-05-15T06:21:03.907Z,99583.22
2023-05-15T06:23:34.489Z,99578.75
2023-05-15T06:26:06.019Z,99579.78
2023-05-15T06:28:36.457Z,99579.84
2023-05-15T06:31:07.524Z,99580.03
2023-05-15T06:33:37.888Z,99572.84
2023-05-15T06:36:08.447Z,99564.16
2023-05-15T06:38:38.834Z,99562.56
2023-05-15T06:41:09.285Z,99551.22
2023-05-15T06:43:39.661Z,99551.88
2023-05-15T06:46:10.119Z,99554.47
2023-05-15T06:48:40.654Z,99563.84
2023-05-15T06:51:11.204Z,99563.28
2023-05-15T06:53:42.924Z,99573.44
2023-05-15T06:56:13.440Z,99567.28
2023-05-15T06:58:43.974Z,99573.19
2023-05-15T07:01:14.342Z,99569.88
2023-05-15T07:03:44.753Z,99568.16
2023-05-15T07:06:15.099Z,99558.63
2023-05-15T07:08:45.726Z,99561.94
2023-05-15T07:11:16.326Z,99558.94
2023-05-15T07:13:47.229Z,99563.09
2023-05-15T07:16:17.808Z,99555.38
2023-05-15T07:18:48.444Z,99572.03
2023-05-15T07:21:19.202Z,99571.41
2023-05-15T07:23:49.574Z,99565.97
2023-05-15T07:26:28.670Z,99571.25
2023-05-15T07:29:03.108Z,99574.47
2023-05-15T07:31:35.016Z,99572.72
2023-05-15T07:34:05.558Z,99569.22
2023-05-15T07:36:35.774Z,99562.78
2023-05-15T07:39:06.192Z,99557.97
2023-05-15T07:41:36.675Z,99573.91
2023-05-15T07:44:07.632Z,99564.16
2023-05-15T07:46:38.285Z,99567.94
2023-05-15T07:49:08.698Z,99563.41
2023-05-15T07:51:39.195Z,99569.19
2023-05-15T07:54:09.568Z,99564.38
2023-05-15T07:56:41.195Z,99564.63
2023-05-15T07:59:11.551Z,99564.22
2023-05-15T08:01:59.883Z,99559.84
2023-05-15T08:04:30.378Z,99558.06
2023-05-15T08:07:00.903Z,99557.69
2023-05-15T08:09:31.376Z,99561.72
2023-05-15T08:12:22.431Z,99572.84
2023-05-15T08:15:11.196Z,99579.16
2023-05-15T08:17:42.503Z,99569.34
2023-05-15T08:20:13.411Z,99568.56
2023-05-15T08:22:43.921Z,99559.78
2023-05-15T08:25:14.575Z,99563.00
2023-05-15T08:27:44.990Z,99576.50
2023-05-15T08:30:15.930Z,99567.25
2023-05-15T08:32:50.535Z,99560.63
2023-05-15T08:35:20.981Z,99563.34
2023-05-15T08:37:51.350Z,99563.66
2023-05-15T08:40:34.428Z,99575.59
2023-05-15T08:43:17.827Z,99563.88
2023-05-15T08:45:48.269Z,99571.69
2023-05-15T08:48:26.811Z,99567.41
2023-05-15T08:50:59.438Z,99568.97
2023-05-15T08:53:31.431Z,99569.75
2023-05-15T08:56:02.430Z,99569.19
2023-05-15T08:58:34.244Z,99573.44
2023-05-15T09:01:05.212Z,99572.03
2023-05-15T09:03:35.704Z,99568.59
2023-05-15T09:06:08.118Z,99575.97
2023-05-15T09:08:39.601Z,99582.91
2023-05-15T09:11:10.601Z,99576.72
2023-05-15T09:13:41.221Z,99579.72
2023-05-15T09:16:11.693Z,99590.81
2023-05-15T09:18:43.721Z,99603.81
2023-05-15T09:21:30.910Z,99598.44
2023-05-15T09:24:21.347Z,99594.31
2023-05-15T09:27:05.093Z,99596.88
2023-05-15T09:29:37.259Z,99601.63
2023-05-15T09:32:10.683Z,99599.28
2023-05-15T09:34:44.826Z,99605.22
2023-05-15T09:37:33.932Z,99600.34
2023-05-15T09:40:12.781Z,99617.28
2023-05-15T09:42:43.025Z,99614.78
2023-05-15T09:45:20.388Z,99618.00
2023-05-15T09:47:50.933Z,99619.22
2023-05-15T09:50:26.405Z,99612.66
2023-05-15T09:53:00.498Z,99620.91
2023-05-15T09:55:33.240Z,99618.66
2023-05-15T09:58:11.407Z,99624.88
2023-05-15T10:00:47.879Z,99629.06
2023-05-15T10:03:22.648Z,99628.94
2023-05-15T10:06:01.029Z,99641.28
2023-05-15T10:08:31.510Z,99640.00
2023-05-15T10:11:03.102Z,99652.28
2023-05-15T10:13:36.638Z,99646.72
2023-05-15T10:16:07.897Z,99654.94
2023-05-15T10:18:41.151Z,99657.34
2023-05-15T10:21:12.605Z,99657.91
2023-05-15T10:23:44.727Z,99662.28
2023-05-15T10:26:28.692Z,99668.66
2023-05-15T10:28:59.545Z,99662.31
2023-05-15T10:31:32.470Z,99678.25
2023-05-15T10:34:04.346Z,99677.06
2023-05-15T10:36:36.258Z,99688.81
2023-05-15T10:39:08.622Z,99680.06
2023-05-15T10:41:38.893Z,99674.16
2023-05-15T10:44:10.120Z,99680.75
2023-05-15T10:46:40.743Z,99686.59
2023-05-15T10:49:11.150Z,99690.81
2023-05-15T10:51:42.254Z,99690.25
2023-05-15T10:54:12.666Z,99688.06
2023-05-15T10:56:44.710Z,99705.34
2023-05-15T10:59:15.135Z,99691.63
2023-05-15T11:01:45.605Z,99704.81
2023-05-15T11:04:21.049Z,99712.41
2023-05-15T11:06:52.660Z,99711.78
2023-05-15T11:09:28.954Z,99717.66
2023-05-15T11:12:01.830Z,99725.56
2023-05-15T11:14:33.867Z,99736.28
2023-05-15T11:17:09.481Z,99727.38
2023-05-15T11:19:52.343Z,99732.91
2023-05-15T11:22:23.811Z,99738.94
2023-05-15T11:25:01.331Z,99745.47
2023-05-15T11:27:43.434Z,99738.53
2023-05-15T11:30:23.460Z,99745.38
2023-05-15T11:33:03.152Z,99752.44
2023-05-15T11:35:55.484Z,99759.47
2023-05-15T11:38:26.959Z,99760.09
2023-05-15T11:41:04.781Z,99771.34
2023-05-15T11:43:38.363Z,99769.13
2023-05-15T11:46:14.371Z,99771.84
2023-05-15T11:48:45.738Z,99784.88
2023-05-15T11:51:29.649Z,99798.53
2023-05-15T11:54:02.176Z,99788.09
2023-05-15T11:56:31.971Z,99806.13
2023-05-15T11:59:03.866Z,99808.25
2023-05-15T12:01:45.565Z,99812.09
2023-05-15T12:04:17.231Z,99815.41
2023-05-15T12:06:50.911Z,99825.41
2023-05-15T12:09:24.029Z,99818.16
2023-05-15T12:11:55.972Z,99822.50
2023-05-15T12:14:30.599Z,99827.69
2023-05-15T12:17:07.553Z,99831.06
2023-05-15T12:19:39.954Z,99834.56
2023-05-15T12:22:10.227Z,99836.63
2023-05-15T12:24:41.395Z,99841.41
2023-05-15T12:27:12.397Z,99844.88
2023-05-15T12:29:43.712Z,99839.34
2023-05-15T12:32:14.568Z,99840.00
2023-05-15T12:34:45.207Z,99843.19
2023-05-15T12:37:16.148Z,99851.34
2023-05-15T12:40:11.784Z,99855.78
2023-05-15T12:42:43.656Z,99856.13
2023-05-15T12:45:22.706Z,99855.47
2023-05-15T12:47:53.592Z,99852.59
2023-05-15T12:50:25.124Z,99848.56
2023-05-15T12:53:05.440Z,99853.94
2023-05-15T12:55:38.216Z,99858.81
2023-05-15T12:58:10.694Z,99867.72
2023-05-15T13:00:47.542Z,99864.88
2023-05-15T13:03:18.120Z,99870.97
2023-05-15T13:05:48.858Z,99871.00
2023-05-15T13:08:20.493Z,99875.34
2023-05-15T13:11:01.764Z,99875.50
2023-05-15T13:13:52.206Z,99873.75
2023-05-15T13:16:28.645Z,99875.50
2023-05-15T13:19:02.691Z,99868.59
2023-05-15T13:21:33.340Z,99867.56
2023-05-15T13:24:03.820Z,99871.69
2023-05-15T13:26:34.294Z,99869.63
2023-05-15T13:29:04.990Z,99875.19
2023-05-15T13:31:35.752Z,99866.16
2023-05-15T13:34:06.621Z,99872.63
2023-05-15T13:36:37.112Z,99869.44
2023-05-15T13:39:08.051Z,99865.91
2023-05-15T13:41:39.349Z,99864.03
2023-05-15T13:44:11.121Z,99863.91
2023-05-15T13:46:41.552Z,99859.56
2023-05-15T13:49:12.818Z,99863.94
2023-05-15T13:51:43.369Z,99866.72
2023-05-15T13:54:13.789Z,99864.59
2023-05-15T13:56:44.194Z,99867.34
2023-05-15T13:59:14.599Z,99867.47
2023-05-15T14:01:45.159Z,99863.34
2023-05-15T14:04:15.657Z,99865.16
2023-05-15T14:06:46.475Z,99862.16
2023-05-15T14:09:16.910Z,99867.69
2023-05-15T14:11:47.341Z,99864.13
2023-05-15T14:14:17.695Z,99864.44
2023-05-15T14:16:48.241Z,99859.69
2023-05-15T14:19:18.774Z,99860.88
2023-05-15T14:21:49.297Z,99863.28
2023-05-15T14:24:19.702Z,99865.53
2023-05-15T14:26:50.284Z,99873.34
2023-05-15T14:29:20.687Z,99875.31
2023-05-15T14:31:51.093Z,99874.31
2023-05-15T14:34:24.044Z,99875.28
2023-05-15T14:36:54.532Z,99877.28
2023-05-15T14:39:24.903Z,99877.72
2023-05-15T14:41:55.333Z,99881.47
2023-05-15T14:44:25.685Z,99893.53
2023-05-15T14:47:10.415Z,99889.22
2023-05-15T14:49:41.566Z,99893.53
2023-05-15T14:52:13.827Z,99899.97
2023-05-15T14:54:44.670Z,99900.34
2023-05-15T14:57:21.796Z,99906.03
2023-05-15T14:59:52.180Z,99908.94
2023-05-15T15:02:22.551Z,99906.22
2023-05-15T15:04:52.987Z,99915.91
2023-05-15T15:07:23.366Z,99915.34
2023-05-15T15:09:53.741Z,99916.50
2023-05-15T15:12:23.990Z,99918.59
2023-05-15T15:14:54.413Z,99906.78
2023-05-15T15:17:24.816Z,99908.44
2023-05-15T15:19:55.402Z,99909.34
2023-05-15T15:22:25.789Z,99910.13
2023-05-15T15:24:56.137Z,99912.31
2023-05-15T15:27:26.514Z,99916.78
2023-05-15T15:29:56.972Z,99910.34
2023-05-15T15:32:27.590Z,99914.97
2023-05-15T15:34:59.504Z,99913.34
2023-05-15T15:37:37.315Z,99902.19
2023-05-15T15:40:09.941Z,99914.97
2023-05-15T15:42:40.649Z,99915.00
2023-05-15T15:45:11.388Z,99908.19
2023-05-15T15:47:41.886Z,99900.50
2023-05-15T15:50:12.555Z,99901.03
2023-05-15T15:52:42.996Z,99909.88
2023-05-15T15:55:13.334Z,99909.44
2023-05-15T15:57:43.855Z,99907.66
2023-05-15T16:00:15.079Z,99899.22
2023-05-15T16:02:45.657Z,99909.00
2023-05-15T16:05:16.411Z,99900.84
2023-05-15T16:07:47.180Z,99898.63
2023-05-15T16:10:17.710Z,99899.63
2023-05-15T16:12:48.279Z,99897.81
2023-05-15T16:15:23.185Z,99898.13
2023-05-15T16:17:55.404Z,99898.13
2023-05-15T16:20:26.368Z,99896.56
2023-05-15T16:22:56.982Z,99906.09
2023-05-15T16:25:27.346Z,99895.88
2023-05-15T16:27:57.602Z,99902.09
2023-05-15T16:30:40.145Z,99894.19
2023-05-15T16:33:19.120Z,99892.94
2023-05-15T16:35:49.925Z,99889.75
2023-05-15T16:38:20.838Z,99895.31
2023-05-15T16:40:51.871Z,99893.53
2023-05-15T16:43:23.337Z,99885.19
2023-05-15T16:45:53.760Z,99889.06
2023-05-15T16:48:24.447Z,99884.56
2023-05-15T16:50:55.242Z,99885.47
2023-05-15T16:53:25.849Z,99885.38
2023-05-15T16:55:56.372Z,99890.28
2023-05-15T16:58:26.976Z,99906.84
2023-05-15T17:00:57.421Z,99900.47
2023-05-15T17:03:28.012Z,99901.28
2023-05-15T17:05:58.394Z,99892.63
2023-05-15T17:08:28.777Z,99897.66
2023-05-15T17:10:59.156Z,99899.34
2023-05-15T17:13:29.633Z,99893.00
2023-05-15T17:16:00.016Z,99894.00
2023-05-15T17:18:30.409Z,99893.59
2023-05-15T17:21:00.939Z,99887.66
2023-05-15T17:23:31.313Z,99880.97
2023-05-15T17:26:01.876Z,99879.16
2023-05-15T17:28:32.369Z,99879.88
2023-05-15T17:31:03.484Z,99877.28
2023-05-15T17:33:34.072Z,99872.88
2023-05-15T17:36:04.295Z,99870.41
2023-05-15T17:38:35.184Z,99869.41
2023-05-15T17:41:05.570Z,99867.34
2023-05-15T17:43:36.129Z,99866.72
2023-05-15T17:46:07.159Z,99869.59
2023-05-15T17:48:37.852Z,99860.56
2023-05-15T17:51:08.118Z,99868.19
2023-05-15T17:53:38.535Z,99865.22
2023-05-15T17:56:09.337Z,99867.03
2023-05-15T17:58:39.766Z,99874.38
2023-05-15T18:01:10.153Z,99865.06
2023-05-15T18:03:41.803Z,99863.25
2023-05-15T18:06:14.962Z,99864.06
2023-05-15T18:08:49.001Z,99867.69
2023-05-15T18:11:22.323Z,99873.41
2023-05-15T18:13:53.380Z,99876.78
2023-05-15T18:16:24.220Z,99877.69
2023-05-15T18:18:54.748Z,99876.41
2023-05-15T18:21:25.216Z,99875.06
2023-05-15T18:23:55.601Z,99882.13
2023-05-15T18:26:27.201Z,99878.69
2023-05-15T18:28:58.406Z,99882.25
2023-05-15T18:31:29.064Z,99872.84
2023-05-15T18:33:59.515Z,99874.84
2023-05-15T18:36:30.242Z,99872.19
2023-05-15T18:39:00.619Z,99874.56
2023-05-15T18:41:48.907Z,99876.53
2023-05-15T18:44:19.370Z,99879.16
2023-05-15T18:46:49.750Z,99874.97
2023-05-15T18:49:20.198Z,99884.38
2023-05-15T18:51:50.599Z,99886.44
2023-05-15T18:54:20.963Z,99883.00
2023-05-15T18:56:51.298Z,99887.66
2023-05-15T18:59:22.312Z,99888.63
2023-05-15T19:01:54.799Z,99888.34
2023-05-15T19:04:25.284Z,99898.06
2023-05-15T19:06:55.829Z,99893.31
2023-05-15T19:09:26.338Z,99898.00
2023-05-15T19:11:57.091Z,99894.03
2023-05-15T19:14:27.861Z,99894.19
2023-05-15T19:16:58.327Z,99891.09
2023-05-15T19:19:29.006Z,99892.81
2023-05-15T19:22:18.856Z,99893.13
2023-05-15T19:24:49.616Z,99902.84
2023-05-15T19:27:20.012Z,99902.47
2023-05-15T19:29:51.270Z,99896.91
2023-05-15T19:32:21.786Z,99896.25
2023-05-15T19:34:52.308Z,99898.41
2023-05-15T19:37:22.968Z,99901.69
2023-05-15T19:39:53.676Z,99901.28
2023-05-15T19:42:24.068Z,99913.03
2023-05-15T19:44:54.332Z,99903.41
2023-05-15T19:47:24.863Z,99905.03
2023-05-15T19:49:55.253Z,99905.94
2023-05-15T19:52:25.971Z,99908.06
2023-05-15T19:54:56.181Z,99907.75
2023-05-15T19:57:26.528Z,99905.34
2023-05-15T19:59:56.894Z,99903.00
2023-05-15T20:02:27.456Z,99905.81
2023-05-15T20:04:57.828Z,99903.38
2023-05-15T20:07:28.200Z,99904.34
2023-05-15T20:09:58.658Z,99908.03
2023-05-15T20:12:29.162Z,99913.13
2023-05-15T20:14:59.541Z,99911.97
2023-05-15T20:17:33.063Z,99909.53
2023-05-15T20:20:03.738Z,99914.84
2023-05-15T20:22:34.104Z,99910.78
2023-05-15T20:25:04.930Z,99914.00
2023-05-15T20:27:35.758Z,99913.81
2023-05-15T20:30:07.114Z,99909.75
2023-05-15T20:32:38.510Z,99910.56
2023-05-15T20:35:10.142Z,99910.09
2023-05-15T20:37:44.374Z,99910.16
2023-05-15T20:40:14.917Z,99906.63
2023-05-15T20:42:45.321Z,99915.97
2023-05-15T20:45:16.129Z,99926.34
2023-05-15T20:47:46.716Z,99925.75
2023-05-15T20:50:17.823Z,99928.69
2023-05-15T20:52:48.721Z,99930.81
2023-05-15T20:55:21.710Z,99929.13
2023-05-15T20:57:52.555Z,99934.75
2023-05-15T21:00:23.539Z,99954.56
2023-05-15T21:02:54.301Z,99953.34
2023-05-15T21:05:24.885Z,99954.50
2023-05-15T21:07:55.433Z,99951.84
2023-05-15T21:10:26.277Z,99954.22
2023-05-15T21:12:59.291Z,99954.16
2023-05-15T21:15:29.852Z,99949.97
2023-05-15T21:18:00.242Z,99950.53
2023-05-15T21:20:31.946Z,99957.91
2023-05-15T21:23:03.956Z,99963.00
2023-05-15T21:25:35.630Z,99960.47
2023-05-15T21:28:06.823Z,99964.00
2023-05-15T21:30:37.350Z,99956.78
2023-05-15T21:33:07.904Z,99957.84
2023-05-15T21:35:38.615Z,99961.34
2023-05-15T21:38:09.046Z,99956.81
2023-05-15T21:40:39.436Z,99965.25
2023-05-15T21:43:11.135Z,99963.66
2023-05-15T21:45:41.538Z,99968.06
2023-05-15T21:48:12.172Z,99959.09
2023-05-15T21:50:42.730Z,99964.22
2023-05-15T21:53:13.122Z,99981.09
2023-05-15T21:55:43.550Z,99972.56
2023-05-15T21:58:13.929Z,99979.47
2023-05-15T22:00:44.259Z,99984.88
2023-05-15T22:03:14.685Z,99979.31
2023-05-15T22:05:45.354Z,99991.78
2023-05-15T22:08:15.909Z,99983.16
2023-05-15T22:10:46.531Z,99998.13
2023-05-15T22:13:17.038Z,99994.69
2023-05-15T22:15:47.438Z,99994.84
2023-05-15T22:18:18.126Z,99993.59
2023-05-15T22:21:06.892Z,99993.91
2023-05-15T22:23:37.794Z,99996.75
2023-05-15T22:26:08.196Z,99997.97
2023-05-15T22:28:38.649Z,100003.34
2023-05-15T22:31:09.083Z,100002.75
2023-05-15T22:33:39.562Z,100004.31
2023-05-15T22:36:10.081Z,100008.00
2023-05-15T22:38:40.716Z,100016.50
2023-05-15T22:41:11.199Z,100019.13
2023-05-15T22:43:41.899Z,100024.69
2023-05-15T22:46:12.506Z,100026.84
2023-05-15T22:48:43.374Z,100022.69
2023-05-15T22:51:13.710Z,100023.97
2023-05-15T22:53:44.614Z,100025.00
2023-05-15T22:56:15.031Z,100028.53
2023-05-15T22:58:45.540Z,100025.25
2023-05-15T23:01:16.382Z,100028.06
2023-05-15T23:03:47.715Z,100023.00
2023-05-15T23:06:21.348Z,100014.19
2023-05-15T23:08:52.765Z,100006.94
2023-05-15T23:11:23.489Z,100000.56
2023-05-15T23:13:54.330Z,99996.47
2023-05-15T23:16:32.170Z,100002.88
2023-05-15T23:19:02.879Z,100010.91
2023-05-15T23:21:33.369Z,100008.19
2023-05-15T23:24:03.761Z,100002.50
2023-05-15T23:26:34.180Z,99999.88
2023-05-15T23:29:04.571Z,100010.63
2023-05-15T23:31:35.156Z,100013.97
2023-05-15T23:34:05.728Z,100008.72
2023-05-15T23:36:36.020Z,100011.06
2023-05-15T23:39:08.319Z,100011.38
2023-05-15T23:41:38.743Z,100010.97
2023-05-15T23:44:09.886Z,100004.72
2023-05-15T23:46:40.527Z,100001.00
2023-05-15T23:49:11.737Z,99995.31
2023-05-15T23:51:42.498Z,99995.72
2023-05-15T23:54:13.239Z,99997.88
2023-05-15T23:56:43.714Z,99989.97
2023-05-15T23:59:15.288Z,99987.81
